CPX759 Details

Departure: Indira Gandhi International Airport (VIDP)
Arrival: Changi International Airport (WSSS)
Route: ITBAN L759 PUT VPL W531 VIH A464 ARAMA


Current Weather Information
VIDP 260130Z 22002KT 1500 R28/P2000 R29/P2000 HZ NSC 28/15 Q1009 NOSIG
WSSS 260130Z VRB03KT 7000 3000S -TSRA FEW008 FEW014CB SCT015TCU 29/25 Q1009 TEMPO TL0200 VRB15G25KT 1000 +TSRA